Etusivu
METAR-TAF:

METAR-TAF

Lentoasemat :

Libreville, Gabon

Leveyspiiri: 00-27N, Pituuspiiri: 009-25E, korkeus merenpinnasta: 12 m

Tämänhetkinen sää

Tämä raportti tehtiin 1 tunti ja 3 minuuttia sitten, kello 18.00 UTC
Tuuli 5 kn etelästä, vaihdellen etelän/kaakon ja lounaan välillä
Lämpötila 27°C
Kosteus 79%
Ilmanpaine 1011 hPa
Näkyvyys 10 km tai enemmän
Muutamia pilviä 1300 ft:n korkeudessa

METAR: FOOL 231800Z 19005KT 160V220 9999 FEW013 27/23 Q1011 NOSIG

Aika: 20:03 (19:03 UTC)

Sääennuste

Tämä raportti tehtiin 2 tuntia ja 3 minuuttia sitten, kello 17.00 UTC
Ennuste voimassa 23. päivästä klo 18 UTC - 24. päivään klo 24 UTC
Tuuli 8 kn etelästä/lounaasta
Näkyvyys: 8000 m
Hajanaisia pilviä 800 ft:n korkeudessa
Hajonneita pilviä 2600 ft:n korkeudessa
Ajoittain
24. päivästä klo 05 UTC - 24. päivään klo 09 UTC
Näkyvyys: 3000 m
Hajonneita pilviä 800 ft:n korkeudessa
utua

TAF: FOOL 231700Z 2318/2424 20008KT 8000 SCT008 BKN026 TEMPO 2405/2409 3000 BR BKN008

Säähavainnot ja -ennusteet yli 4000 lentoasemalta (METAR- ja TAF-raportit).

Käytössä olevat sääasemat on merkitty karttaan keltaisilla ja punaisilla pisteillä.

Aseta hiiri pisteen päälle nähdäksesi sääaseman nimen.

Klikkaa sitten nähdäksesi säähavainnot ja -ennusteet.

Kartan vaihtaminen: klikkaa mustalla rastilla varustettuja vihreitä pisteitä, niin voit zoomata sisään; viivalla varustettua vihreää pistettä, niin voit zoomata ulos tai vihreitä nuolia, niin pääset viereisille kartoille.


METAR-TAF: